createdAt,value
2022-07-30T00:00:38.228Z,28.93
2022-07-30T00:01:40.129Z,28.94
2022-07-30T00:02:42.792Z,29.14
2022-07-30T00:03:44.708Z,28.53
2022-07-30T00:04:46.740Z,28.63
2022-07-30T00:05:48.775Z,29.11
2022-07-30T00:06:50.904Z,28.90
2022-07-30T00:07:52.820Z,28.59
2022-07-30T00:08:54.748Z,28.93
2022-07-30T00:09:56.616Z,28.54
2022-07-30T00:10:58.560Z,28.82
2022-07-30T00:12:00.477Z,28.65
2022-07-30T00:13:03.705Z,29.17
2022-07-30T00:14:05.686Z,29.15
2022-07-30T00:15:08.301Z,28.96
2022-07-30T00:16:10.174Z,28.64
2022-07-30T00:17:12.299Z,29.21
2022-07-30T00:18:14.404Z,28.83
2022-07-30T00:19:17.347Z,29.12
2022-07-30T00:20:20.611Z,29.02
2022-07-30T00:21:35.802Z,29.15
2022-07-30T00:22:40.797Z,28.59
2022-07-30T00:23:42.611Z,28.58
2022-07-30T00:25:03.474Z,28.52
2022-07-30T00:26:05.246Z,28.72
2022-07-30T00:27:09.091Z,28.74
2022-07-30T00:28:10.942Z,28.71
2022-07-30T00:29:13.055Z,29.04
2022-07-30T00:30:15.154Z,29.24
2022-07-30T00:31:18.352Z,29.10
2022-07-30T00:32:20.222Z,29.01
2022-07-30T00:33:22.048Z,29.08
2022-07-30T00:34:23.937Z,28.75
2022-07-30T00:35:27.474Z,29.09
2022-07-30T00:36:29.667Z,28.95
2022-07-30T00:37:31.578Z,28.96
2022-07-30T00:38:33.475Z,29.19
2022-07-30T00:39:35.339Z,28.81
2022-07-30T00:40:37.336Z,28.85
2022-07-30T00:42:01.892Z,28.96
2022-07-30T00:43:03.731Z,28.62
2022-07-30T00:44:05.662Z,29.04
2022-07-30T00:45:08.488Z,28.68
2022-07-30T00:46:11.235Z,28.72
2022-07-30T00:47:13.076Z,28.63
2022-07-30T00:48:16.476Z,29.21
2022-07-30T00:49:18.441Z,29.15
2022-07-30T00:50:20.455Z,28.57
2022-07-30T00:51:23.527Z,29.27
2022-07-30T00:52:25.615Z,28.78
2022-07-30T00:53:27.487Z,28.82
2022-07-30T00:54:29.576Z,28.61
2022-07-30T00:55:31.843Z,28.83
2022-07-30T00:56:33.623Z,28.72
2022-07-30T00:57:35.986Z,29.33
2022-07-30T00:58:37.902Z,29.15
2022-07-30T00:59:39.714Z,28.70
2022-07-30T01:00:41.598Z,28.99
2022-07-30T01:01:43.598Z,29.18
2022-07-30T01:02:46.359Z,29.16
2022-07-30T01:03:48.133Z,28.85
2022-07-30T01:04:50.331Z,29.30
2022-07-30T01:05:54.838Z,29.08
2022-07-30T01:06:57.418Z,28.75
2022-07-30T01:07:59.443Z,28.97
2022-07-30T01:09:01.546Z,28.94
2022-07-30T01:10:04.708Z,28.63
2022-07-30T01:11:06.998Z,29.11
2022-07-30T01:12:11.221Z,28.67
2022-07-30T01:13:13.225Z,28.62
2022-07-30T01:14:15.230Z,29.18
2022-07-30T01:15:17.980Z,28.97
2022-07-30T01:16:19.966Z,28.68
2022-07-30T01:17:21.892Z,28.71
2022-07-30T01:18:45.392Z,28.82
2022-07-30T01:19:51.016Z,29.27
2022-07-30T01:21:07.784Z,29.26
2022-07-30T01:22:15.941Z,29.21
2022-07-30T01:23:31.379Z,29.22
2022-07-30T01:24:40.470Z,29.24
2022-07-30T01:26:01.581Z,28.64
2022-07-30T01:27:04.927Z,29.03
2022-07-30T01:28:12.562Z,29.37
2022-07-30T01:29:16.590Z,29.07
2022-07-30T01:30:23.568Z,28.95
2022-07-30T01:31:27.177Z,28.96
2022-07-30T01:32:31.267Z,29.44
2022-07-30T01:33:37.333Z,29.13
2022-07-30T01:34:40.383Z,29.42
2022-07-30T01:35:45.351Z,28.87
2022-07-30T01:36:47.653Z,29.44
2022-07-30T01:37:50.944Z,29.17
2022-07-30T01:38:54.175Z,29.03
2022-07-30T01:39:57.019Z,29.29
2022-07-30T01:40:59.736Z,29.44
2022-07-30T01:42:05.552Z,29.11
2022-07-30T01:43:09.083Z,29.03
2022-07-30T01:44:13.327Z,29.06
2022-07-30T01:45:16.464Z,29.23
2022-07-30T01:46:19.835Z,29.04
2022-07-30T01:47:25.414Z,29.50
2022-07-30T01:48:29.271Z,29.33
2022-07-30T01:49:34.167Z,29.34
2022-07-30T01:50:37.548Z,29.58
2022-07-30T01:51:39.833Z,29.33
2022-07-30T01:52:48.989Z,29.43
2022-07-30T01:53:53.696Z,29.06
2022-07-30T01:54:58.028Z,29.21
2022-07-30T01:56:03.019Z,29.24
2022-07-30T01:57:07.552Z,29.62
2022-07-30T01:58:12.479Z,29.50
2022-07-30T01:59:20.240Z,29.29
2022-07-30T02:00:24.663Z,29.40
2022-07-30T02:01:27.083Z,29.37
2022-07-30T02:02:36.399Z,29.13
2022-07-30T02:03:38.273Z,29.38
2022-07-30T02:04:41.272Z,29.63
2022-07-30T02:05:50.267Z,29.53
2022-07-30T02:07:04.415Z,29.09
2022-07-30T02:08:12.629Z,29.18
2022-07-30T02:09:22.393Z,29.29
2022-07-30T02:10:49.288Z,29.14
2022-07-30T02:12:13.680Z,29.14
2022-07-30T02:13:21.444Z,29.44
2022-07-30T02:14:47.932Z,28.86
2022-07-30T02:16:11.316Z,28.80
2022-07-30T02:17:21.059Z,29.14
2022-07-30T02:18:39.909Z,29.10
2022-07-30T02:19:44.425Z,29.41
2022-07-30T02:20:56.255Z,29.19
2022-07-30T02:22:06.910Z,29.14
2022-07-30T02:23:12.668Z,29.27
2022-07-30T02:24:20.019Z,29.45
2022-07-30T02:25:24.063Z,29.23
2022-07-30T02:26:30.015Z,29.18
2022-07-30T02:27:35.307Z,29.35
2022-07-30T02:28:44.427Z,29.59
2022-07-30T02:29:48.702Z,29.41
2022-07-30T02:30:54.469Z,29.57
2022-07-30T02:31:58.204Z,29.18
2022-07-30T02:33:05.912Z,29.13
2022-07-30T02:34:09.340Z,29.06
2022-07-30T02:35:22.794Z,29.77
2022-07-30T02:36:25.741Z,29.36
2022-07-30T02:37:41.555Z,29.30
2022-07-30T02:38:47.587Z,29.43
2022-07-30T02:39:52.282Z,29.57
2022-07-30T02:41:00.675Z,29.56
2022-07-30T02:42:04.668Z,29.42
2022-07-30T02:43:06.519Z,29.62
2022-07-30T02:44:10.250Z,29.59
2022-07-30T02:45:16.231Z,29.36
2022-07-30T02:46:20.027Z,29.32
2022-07-30T02:48:08.115Z,29.13
2022-07-30T02:49:14.929Z,29.02
2022-07-30T02:50:19.220Z,28.96
2022-07-30T02:51:22.715Z,29.55
2022-07-30T02:52:26.911Z,29.10
2022-07-30T02:53:30.492Z,29.75
2022-07-30T02:54:33.334Z,29.44
2022-07-30T02:55:38.215Z,29.36
2022-07-30T02:56:41.667Z,29.16
2022-07-30T02:57:44.939Z,29.58
2022-07-30T02:58:49.042Z,29.68
2022-07-30T02:59:53.102Z,29.65
2022-07-30T03:00:57.204Z,29.75
2022-07-30T03:02:00.101Z,29.54
2022-07-30T03:03:05.954Z,29.59
2022-07-30T03:04:08.910Z,29.84
2022-07-30T03:05:14.303Z,29.15
2022-07-30T03:06:17.029Z,29.44
2022-07-30T03:07:20.396Z,29.40
2022-07-30T03:08:22.827Z,29.79
2022-07-30T03:09:25.278Z,29.47
2022-07-30T03:10:29.116Z,29.74
2022-07-30T03:11:33.920Z,29.87
2022-07-30T03:12:38.047Z,29.47
2022-07-30T03:13:40.398Z,29.64
2022-07-30T03:14:42.419Z,29.86
2022-07-30T03:15:49.775Z,29.15
2022-07-30T03:16:58.259Z,29.28
2022-07-30T03:18:01.088Z,29.83
2022-07-30T03:19:09.946Z,29.53
2022-07-30T03:20:17.990Z,29.35
2022-07-30T03:21:21.855Z,29.47
2022-07-30T03:22:28.948Z,29.66
2022-07-30T03:23:37.758Z,29.18
2022-07-30T03:24:43.626Z,29.45
2022-07-30T03:25:54.995Z,29.87
2022-07-30T03:26:58.790Z,29.46
2022-07-30T03:28:03.930Z,29.85
2022-07-30T03:29:08.759Z,30.06
2022-07-30T03:30:13.851Z,29.85
2022-07-30T03:31:16.319Z,29.21
2022-07-30T03:32:19.224Z,29.77
2022-07-30T03:33:38.124Z,29.86
2022-07-30T03:34:43.875Z,29.63
2022-07-30T03:35:49.847Z,29.47
2022-07-30T03:36:53.800Z,29.36
2022-07-30T03:37:56.970Z,29.92
2022-07-30T03:38:59.900Z,29.85
2022-07-30T03:40:02.883Z,29.83
2022-07-30T03:41:07.307Z,29.33
2022-07-30T03:42:09.717Z,29.94
2022-07-30T03:43:32.475Z,29.63
2022-07-30T03:44:37.363Z,29.20
2022-07-30T03:45:42.788Z,29.32
2022-07-30T03:46:46.640Z,29.39
2022-07-30T03:47:49.567Z,29.45
2022-07-30T03:48:53.284Z,29.82
2022-07-30T03:49:55.354Z,29.77
2022-07-30T03:50:58.680Z,29.55
2022-07-30T03:52:02.296Z,29.54
2022-07-30T03:53:05.913Z,29.75
2022-07-30T03:54:14.046Z,29.79
2022-07-30T03:55:17.040Z,29.89
2022-07-30T03:56:24.820Z,29.96
2022-07-30T03:58:00.871Z,29.71
2022-07-30T03:59:05.858Z,29.65
2022-07-30T04:00:14.752Z,29.93
2022-07-30T04:01:25.609Z,29.71
2022-07-30T04:02:30.988Z,29.75
2022-07-30T04:03:50.085Z,29.69
2022-07-30T04:04:52.277Z,29.67
2022-07-30T04:05:54.404Z,30.01
2022-07-30T04:06:59.558Z,29.91
2022-07-30T04:08:01.728Z,29.44
2022-07-30T04:09:11.156Z,29.46
2022-07-30T04:10:14.747Z,30.10
2022-07-30T04:11:41.064Z,29.30
2022-07-30T04:12:46.087Z,29.75
2022-07-30T04:13:48.310Z,29.73
2022-07-30T04:14:53.804Z,30.11
2022-07-30T04:16:36.939Z,29.72
2022-07-30T04:17:33.351Z,30.14
2022-07-30T04:18:45.190Z,29.71
2022-07-30T04:19:59.353Z,29.98
2022-07-30T04:21:06.084Z,29.76
2022-07-30T04:22:09.673Z,29.89
2022-07-30T04:23:13.906Z,30.30
2022-07-30T04:24:19.939Z,29.90
2022-07-30T04:25:24.670Z,30.26
2022-07-30T04:26:26.935Z,29.97
2022-07-30T04:27:31.152Z,30.27
2022-07-30T04:28:34.596Z,30.45
2022-07-30T04:29:37.034Z,30.34
2022-07-30T04:30:38.914Z,30.06
2022-07-30T04:31:41.376Z,30.38
2022-07-30T04:33:08.475Z,29.98
2022-07-30T04:34:27.219Z,29.88
2022-07-30T04:35:51.579Z,30.27
2022-07-30T04:36:57.363Z,30.19
2022-07-30T04:38:00.597Z,30.17
2022-07-30T04:39:03.618Z,29.83
2022-07-30T04:40:06.492Z,30.18
2022-07-30T04:41:08.556Z,30.35
2022-07-30T04:42:30.608Z,29.87
2022-07-30T04:43:41.415Z,29.93
2022-07-30T04:44:43.616Z,29.75
2022-07-30T04:46:11.796Z,29.70
2022-07-30T04:47:14.660Z,29.88
2022-07-30T04:48:30.607Z,30.19
2022-07-30T04:49:47.972Z,29.87
2022-07-30T04:50:53.988Z,30.35
2022-07-30T04:51:57.786Z,30.20
2022-07-30T04:53:00.266Z,30.14
2022-07-30T04:54:15.574Z,30.59
2022-07-30T04:55:20.239Z,29.75
2022-07-30T04:56:26.051Z,30.01
2022-07-30T04:57:28.712Z,30.07
2022-07-30T04:58:32.687Z,30.24
2022-07-30T04:59:37.318Z,30.11
2022-07-30T05:00:41.317Z,30.24
2022-07-30T05:01:50.692Z,30.32
2022-07-30T05:02:54.707Z,30.26
2022-07-30T05:03:59.343Z,30.12
2022-07-30T05:05:02.969Z,30.27
2022-07-30T05:06:06.976Z,30.60
2022-07-30T05:07:14.663Z,30.34
2022-07-30T05:08:17.063Z,30.52
2022-07-30T05:09:20.021Z,30.31
2022-07-30T05:10:22.094Z,30.56
2022-07-30T05:11:24.028Z,30.39
2022-07-30T05:12:39.213Z,30.32
2022-07-30T05:13:48.822Z,30.13
2022-07-30T05:14:54.976Z,30.35
2022-07-30T05:15:57.352Z,30.53
2022-07-30T05:17:00.878Z,30.42
2022-07-30T05:18:04.191Z,30.34
2022-07-30T05:19:09.759Z,30.69
2022-07-30T05:20:12.476Z,30.54
2022-07-30T05:21:46.823Z,30.36
2022-07-30T05:22:51.064Z,30.71
2022-07-30T05:23:54.588Z,30.26
2022-07-30T05:25:06.413Z,30.44
2022-07-30T05:26:21.708Z,30.51
2022-07-30T05:27:27.026Z,30.79
2022-07-30T05:28:29.077Z,30.62
2022-07-30T05:29:34.047Z,30.98
2022-07-30T05:30:46.080Z,30.42
2022-07-30T05:31:52.427Z,30.53
2022-07-30T05:32:55.975Z,30.89
2022-07-30T05:34:02.805Z,30.38
2022-07-30T05:35:12.639Z,30.58
2022-07-30T05:36:14.853Z,30.45
2022-07-30T05:37:17.284Z,30.65
2022-07-30T05:38:19.567Z,30.40
2022-07-30T05:40:02.173Z,30.23
2022-07-30T05:41:33.294Z,30.08
2022-07-30T05:42:38.284Z,30.43
2022-07-30T05:43:43.424Z,30.43
2022-07-30T05:44:45.305Z,30.69
2022-07-30T05:45:47.265Z,30.17
2022-07-30T05:46:49.328Z,30.92
2022-07-30T05:47:51.411Z,30.63
2022-07-30T05:48:53.652Z,30.61
2022-07-30T05:49:55.955Z,30.78
2022-07-30T05:50:57.866Z,31.01
2022-07-30T05:51:59.762Z,30.65
2022-07-30T05:53:02.978Z,30.46
2022-07-30T05:54:24.748Z,30.43
2022-07-30T05:55:45.785Z,30.79
2022-07-30T05:57:11.063Z,30.50
2022-07-30T05:58:13.691Z,31.10
2022-07-30T05:59:15.606Z,30.59
2022-07-30T06:00:36.942Z,30.49
2022-07-30T06:01:38.905Z,30.83
2022-07-30T06:02:49.232Z,31.13
2022-07-30T06:03:56.887Z,30.78
2022-07-30T06:05:22.177Z,31.01
2022-07-30T06:06:24.272Z,30.67
2022-07-30T06:07:27.333Z,31.05
2022-07-30T06:08:31.587Z,30.89
2022-07-30T06:09:36.403Z,31.28
2022-07-30T06:10:39.681Z,30.94
2022-07-30T06:11:41.672Z,30.93
2022-07-30T06:12:43.679Z,31.37
2022-07-30T06:13:45.734Z,31.33
2022-07-30T06:14:48.179Z,31.09
2022-07-30T06:15:56.973Z,31.08
2022-07-30T06:16:59.207Z,30.92
2022-07-30T06:18:04.660Z,30.96
2022-07-30T06:19:21.339Z,30.87
2022-07-30T06:20:23.922Z,30.70
2022-07-30T06:22:05.379Z,31.09
2022-07-30T06:23:08.688Z,31.06
2022-07-30T06:24:48.926Z,30.68
2022-07-30T06:25:54.621Z,30.90
2022-07-30T06:26:56.436Z,31.00
2022-07-30T06:28:06.857Z,30.71
2022-07-30T06:29:17.847Z,30.52
2022-07-30T06:30:19.627Z,30.87
2022-07-30T06:31:32.085Z,30.79
2022-07-30T06:32:35.452Z,30.51
2022-07-30T06:33:37.688Z,30.45
2022-07-30T06:34:39.593Z,30.40
2022-07-30T06:35:42.680Z,30.19
2022-07-30T06:36:46.227Z,30.66
2022-07-30T06:38:01.802Z,30.64
2022-07-30T06:39:13.825Z,30.38
2022-07-30T06:40:28.983Z,29.99
2022-07-30T06:41:49.033Z,30.41
2022-07-30T06:42:50.848Z,30.00
2022-07-30T06:44:15.561Z,29.95
2022-07-30T06:45:32.275Z,29.79
2022-07-30T06:46:57.169Z,29.67
2022-07-30T06:48:00.817Z,29.89
2022-07-30T06:49:06.179Z,29.94
2022-07-30T06:50:09.511Z,29.95
2022-07-30T06:51:13.590Z,30.10
2022-07-30T06:52:18.782Z,29.88
2022-07-30T06:53:25.797Z,30.07
2022-07-30T06:54:48.511Z,29.95
2022-07-30T06:56:00.318Z,29.32
2022-07-30T06:57:09.520Z,29.65
2022-07-30T06:58:11.609Z,29.75
2022-07-30T06:59:56.927Z,29.30
2022-07-30T07:01:16.435Z,29.17
2022-07-30T07:02:19.105Z,29.40
2022-07-30T07:03:47.048Z,29.36
2022-07-30T07:04:50.324Z,28.90
2022-07-30T07:05:52.420Z,29.42
2022-07-30T07:06:54.257Z,29.14
2022-07-30T07:08:04.751Z,29.30
2022-07-30T07:09:11.853Z,29.47
2022-07-30T07:10:21.323Z,29.17
2022-07-30T07:11:28.934Z,29.28
2022-07-30T07:12:32.558Z,29.35
2022-07-30T07:13:35.270Z,29.28
2022-07-30T07:14:41.773Z,29.32
2022-07-30T07:15:43.574Z,29.46
2022-07-30T07:16:50.522Z,29.08
2022-07-30T07:18:31.110Z,29.26
2022-07-30T07:20:01.385Z,29.41
2022-07-30T07:21:02.609Z,29.06
2022-07-30T07:22:04.511Z,29.50
2022-07-30T07:23:09.382Z,29.70
2022-07-30T07:24:14.766Z,29.21
2022-07-30T07:25:32.218Z,29.12
2022-07-30T07:26:34.069Z,29.11
2022-07-30T07:27:37.638Z,29.40
2022-07-30T07:28:40.900Z,29.20
2022-07-30T07:30:04.919Z,29.28
2022-07-30T07:31:07.619Z,29.24
2022-07-30T07:32:10.569Z,29.09
2022-07-30T07:33:15.606Z,29.55
2022-07-30T07:34:19.746Z,29.01
2022-07-30T07:35:22.120Z,29.16
2022-07-30T07:36:25.483Z,29.31
2022-07-30T07:37:27.674Z,29.31
2022-07-30T07:38:30.406Z,29.21
2022-07-30T07:39:35.418Z,29.43
2022-07-30T07:40:39.496Z,29.70
2022-07-30T07:41:49.058Z,29.55
2022-07-30T07:42:54.319Z,29.77
2022-07-30T07:43:56.300Z,29.24
2022-07-30T07:45:07.504Z,29.45
2022-07-30T07:46:33.181Z,29.42
2022-07-30T07:47:51.528Z,29.45
2022-07-30T07:49:18.318Z,29.47
2022-07-30T07:50:24.395Z,29.27
2022-07-30T07:51:46.718Z,29.28
2022-07-30T07:52:50.662Z,28.95
2022-07-30T07:54:20.007Z,29.06
2022-07-30T07:55:15.476Z,29.28
2022-07-30T07:56:17.741Z,28.99
2022-07-30T07:57:19.647Z,29.53
2022-07-30T07:58:26.106Z,28.94
2022-07-30T07:59:36.067Z,28.97
2022-07-30T08:00:48.363Z,29.21
2022-07-30T08:01:51.645Z,29.06
2022-07-30T08:03:11.780Z,29.16
2022-07-30T08:04:14.221Z,29.04
2022-07-30T08:06:00.972Z,28.63
2022-07-30T08:07:18.706Z,29.10
2022-07-30T08:08:52.855Z,28.73
2022-07-30T08:10:26.903Z,28.64
2022-07-30T08:12:01.283Z,28.81
2022-07-30T08:13:52.838Z,28.66
2022-07-30T08:15:04.780Z,28.87
2022-07-30T08:16:29.740Z,29.00
2022-07-30T08:17:49.970Z,29.04
2022-07-30T08:18:58.930Z,29.22
2022-07-30T08:20:06.686Z,29.25
2022-07-30T08:21:09.184Z,29.14
2022-07-30T08:22:11.379Z,29.12
2022-07-30T08:23:14.668Z,29.23
2022-07-30T08:24:16.487Z,29.24
2022-07-30T08:25:22.460Z,29.13
2022-07-30T08:26:27.200Z,29.68
2022-07-30T08:27:29.045Z,29.42
2022-07-30T08:28:35.755Z,29.45
2022-07-30T08:29:39.521Z,29.58
2022-07-30T08:30:41.701Z,29.75
2022-07-30T08:31:43.967Z,29.69
2022-07-30T08:32:45.809Z,29.32
2022-07-30T08:33:48.450Z,29.49
2022-07-30T08:34:50.505Z,29.66
2022-07-30T08:35:59.113Z,29.56
2022-07-30T08:37:04.807Z,29.32
2022-07-30T08:38:07.007Z,29.68
2022-07-30T08:39:09.653Z,29.50
2022-07-30T08:40:12.155Z,29.61
2022-07-30T08:41:26.231Z,29.52
2022-07-30T08:42:28.280Z,29.75
2022-07-30T08:43:31.803Z,29.51
2022-07-30T08:44:35.462Z,29.68
2022-07-30T08:45:40.317Z,29.98
2022-07-30T08:47:00.764Z,29.84
2022-07-30T08:48:24.116Z,29.76
2022-07-30T08:49:26.575Z,29.40
2022-07-30T08:50:29.444Z,29.82
2022-07-30T08:51:53.000Z,29.70
2022-07-30T08:53:21.311Z,29.90
2022-07-30T08:54:23.431Z,29.74
2022-07-30T08:55:25.792Z,30.10
2022-07-30T08:56:28.996Z,29.78
2022-07-30T08:57:32.099Z,30.10
2022-07-30T08:58:37.245Z,30.04
2022-07-30T08:59:59.907Z,30.29
2022-07-30T09:01:04.307Z,29.80
2022-07-30T09:02:10.372Z,29.94
2022-07-30T09:03:26.637Z,29.71
2022-07-30T09:04:28.700Z,29.99
2022-07-30T09:05:31.019Z,30.06
2022-07-30T09:06:32.910Z,29.73
2022-07-30T09:07:37.361Z,29.78
2022-07-30T09:08:41.989Z,29.93
2022-07-30T09:09:43.839Z,29.89
2022-07-30T09:10:53.062Z,29.71
2022-07-30T09:11:55.871Z,29.80
2022-07-30T09:12:58.174Z,29.89
2022-07-30T09:14:09.254Z,30.12
2022-07-30T09:15:17.177Z,30.05
2022-07-30T09:16:24.329Z,29.88
2022-07-30T09:17:31.242Z,29.63
2022-07-30T09:18:37.746Z,30.05
2022-07-30T09:19:40.039Z,29.97
2022-07-30T09:20:41.912Z,30.11
2022-07-30T09:21:59.266Z,29.81
2022-07-30T09:23:27.633Z,29.87
2022-07-30T09:24:45.100Z,29.73
2022-07-30T09:25:51.510Z,30.24
2022-07-30T09:27:11.901Z,29.95
2022-07-30T09:28:17.134Z,30.26
2022-07-30T09:29:39.303Z,29.94
2022-07-30T09:31:00.375Z,29.97
2022-07-30T09:32:51.743Z,29.94
2022-07-30T09:34:32.266Z,30.09
2022-07-30T09:35:41.257Z,29.76
2022-07-30T09:36:45.817Z,30.27
2022-07-30T09:38:04.501Z,30.02
2022-07-30T09:39:38.020Z,29.93
2022-07-30T09:41:38.103Z,29.99
2022-07-30T09:42:45.893Z,30.03
2022-07-30T09:43:51.492Z,30.12
2022-07-30T09:45:06.259Z,30.14
2022-07-30T09:46:08.310Z,29.95
2022-07-30T09:47:10.204Z,29.94
2022-07-30T09:48:25.205Z,30.05
2022-07-30T09:49:29.068Z,29.94
2022-07-30T09:50:31.250Z,30.08
2022-07-30T09:51:55.639Z,29.73
2022-07-30T09:53:09.827Z,29.66
2022-07-30T09:54:16.196Z,29.77
2022-07-30T09:55:34.157Z,29.79
2022-07-30T09:56:36.059Z,29.86
2022-07-30T09:57:59.399Z,29.92
2022-07-30T09:59:03.647Z,29.41
2022-07-30T10:00:24.014Z,29.59
2022-07-30T10:01:56.280Z,29.45
2022-07-30T10:03:34.234Z,29.58
2022-07-30T10:05:14.891Z,29.23
2022-07-30T10:06:17.471Z,29.71
2022-07-30T10:07:25.175Z,29.69
2022-07-30T10:08:50.272Z,29.45
2022-07-30T10:09:53.428Z,29.53
2022-07-30T10:10:55.835Z,29.48
2022-07-30T10:12:00.927Z,29.36
2022-07-30T10:13:09.029Z,29.58
2022-07-30T10:14:16.610Z,29.61
2022-07-30T10:15:21.377Z,29.48
2022-07-30T10:16:27.271Z,29.41
2022-07-30T10:17:33.183Z,29.29
2022-07-30T10:19:00.466Z,29.68
2022-07-30T10:20:27.164Z,29.34
2022-07-30T10:21:49.755Z,29.28
2022-07-30T10:22:54.363Z,29.21
2022-07-30T10:24:13.294Z,29.30
2022-07-30T10:25:59.403Z,29.04
2022-07-30T10:27:25.112Z,28.89
2022-07-30T10:28:43.563Z,28.92
2022-07-30T10:29:45.648Z,29.15
2022-07-30T10:30:50.734Z,29.21
2022-07-30T10:31:54.349Z,29.20
2022-07-30T10:32:58.634Z,29.00
2022-07-30T10:34:02.297Z,29.04
2022-07-30T10:35:05.839Z,29.05
2022-07-30T10:36:11.104Z,29.36
2022-07-30T10:37:15.821Z,29.24
2022-07-30T10:38:22.143Z,29.29
2022-07-30T10:39:28.436Z,29.03
2022-07-30T10:40:40.499Z,29.35
2022-07-30T10:41:47.323Z,29.11
2022-07-30T10:43:22.379Z,29.03
2022-07-30T10:44:32.871Z,28.94
2022-07-30T10:45:34.989Z,28.77
2022-07-30T10:47:06.863Z,28.80
2022-07-30T10:48:09.726Z,28.73
2022-07-30T10:49:18.514Z,29.00
2022-07-30T10:50:27.072Z,28.83
2022-07-30T10:51:46.583Z,28.94
2022-07-30T10:52:55.750Z,28.91
2022-07-30T10:53:57.752Z,28.97
2022-07-30T10:54:59.901Z,28.62
2022-07-30T10:56:25.971Z,28.86
2022-07-30T10:57:32.216Z,28.64
2022-07-30T10:59:08.292Z,28.64
2022-07-30T11:00:12.148Z,28.85
2022-07-30T11:01:18.163Z,28.90
2022-07-30T11:02:21.004Z,28.75
2022-07-30T11:03:40.448Z,29.03
2022-07-30T11:04:46.597Z,28.59
2022-07-30T11:05:50.193Z,28.74
2022-07-30T11:07:17.432Z,28.57
2022-07-30T11:08:30.964Z,28.63
2022-07-30T11:09:42.736Z,28.83
2022-07-30T11:10:45.087Z,28.51
2022-07-30T11:12:01.276Z,28.73
2022-07-30T11:13:08.870Z,28.79
2022-07-30T11:14:12.937Z,28.99
2022-07-30T11:15:19.333Z,28.65
2022-07-30T11:16:23.957Z,28.54
2022-07-30T11:17:26.707Z,28.71
2022-07-30T11:18:29.003Z,28.76
2022-07-30T11:19:55.524Z,28.46
2022-07-30T11:21:14.673Z,28.47
2022-07-30T11:22:29.648Z,28.80
2022-07-30T11:23:39.624Z,28.88
2022-07-30T11:24:47.421Z,28.84
2022-07-30T11:25:54.713Z,28.87
2022-07-30T11:26:57.020Z,28.76
2022-07-30T11:28:00.820Z,28.79
2022-07-30T11:29:04.704Z,28.92
2022-07-30T11:30:29.341Z,28.85
2022-07-30T11:31:56.813Z,28.51
2022-07-30T11:33:03.942Z,28.64
2022-07-30T11:34:25.693Z,28.61
2022-07-30T11:35:35.635Z,28.58
2022-07-30T11:36:38.164Z,28.67
2022-07-30T11:38:13.276Z,28.70
2022-07-30T11:39:15.082Z,28.66
2022-07-30T11:40:17.053Z,28.62
2022-07-30T11:41:28.287Z,28.84
2022-07-30T11:42:34.847Z,28.97
2022-07-30T11:43:37.149Z,28.54
2022-07-30T11:44:39.010Z,28.72
2022-07-30T11:45:41.394Z,28.75
2022-07-30T11:46:49.409Z,28.70
2022-07-30T11:47:56.463Z,28.82
2022-07-30T11:49:02.882Z,28.89
2022-07-30T11:50:05.174Z,28.96
2022-07-30T11:51:09.019Z,28.73
2022-07-30T11:52:11.183Z,28.88
2022-07-30T11:53:20.168Z,28.92
2022-07-30T11:54:23.317Z,28.99
2022-07-30T11:55:31.147Z,28.92
2022-07-30T11:56:33.660Z,28.46
2022-07-30T11:57:42.694Z,28.96
2022-07-30T11:58:45.426Z,28.54
2022-07-30T11:59:58.162Z,28.76
2022-07-30T12:01:03.694Z,29.04
2022-07-30T12:02:11.400Z,28.76
2022-07-30T12:03:16.358Z,28.71
2022-07-30T12:04:18.889Z,28.68
2022-07-30T12:05:27.070Z,28.93
2022-07-30T12:06:30.027Z,28.70
2022-07-30T12:07:32.083Z,28.96
2022-07-30T12:08:41.491Z,28.89
2022-07-30T12:09:43.864Z,28.78
2022-07-30T12:11:00.170Z,28.70
2022-07-30T12:12:02.579Z,28.98
2022-07-30T12:13:13.248Z,28.74
2022-07-30T12:14:14.992Z,28.87
2022-07-30T12:15:34.298Z,28.67
2022-07-30T12:16:36.130Z,28.48
2022-07-30T12:17:45.583Z,28.76
2022-07-30T12:18:48.547Z,28.92
2022-07-30T12:19:51.523Z,28.44
2022-07-30T12:21:16.520Z,28.65
2022-07-30T12:22:18.535Z,28.82
2022-07-30T12:23:21.685Z,28.78
2022-07-30T12:24:26.942Z,28.74
2022-07-30T12:25:29.195Z,28.85
2022-07-30T12:26:34.275Z,28.94
2022-07-30T12:27:37.326Z,28.77
2022-07-30T12:28:39.237Z,29.01
2022-07-30T12:29:41.564Z,29.06
2022-07-30T12:30:43.939Z,28.87
2022-07-30T12:31:46.343Z,28.96
2022-07-30T12:32:48.416Z,28.63
2022-07-30T12:33:50.264Z,28.73
2022-07-30T12:34:58.754Z,28.78
2022-07-30T12:36:01.150Z,28.90
2022-07-30T12:37:10.361Z,29.15
2022-07-30T12:38:13.456Z,28.77
2022-07-30T12:39:21.345Z,28.68
2022-07-30T12:40:23.446Z,28.88
2022-07-30T12:41:44.774Z,28.86
2022-07-30T12:42:54.327Z,28.89
2022-07-30T12:43:56.828Z,28.67
2022-07-30T12:45:00.076Z,28.90
2022-07-30T12:46:01.957Z,28.91
2022-07-30T12:47:06.543Z,28.86
2022-07-30T12:48:11.541Z,28.73
2022-07-30T12:49:22.379Z,28.53
2022-07-30T12:50:26.221Z,28.73
2022-07-30T12:51:32.760Z,28.70
2022-07-30T12:52:38.571Z,28.42
2022-07-30T12:53:40.423Z,28.64
2022-07-30T12:54:43.283Z,28.60
2022-07-30T12:55:45.069Z,28.68
2022-07-30T12:57:05.794Z,28.74
2022-07-30T12:58:09.215Z,28.75
2022-07-30T12:59:22.584Z,28.74
2022-07-30T13:00:27.629Z,28.42
2022-07-30T13:01:47.209Z,28.73
2022-07-30T13:02:49.384Z,28.70
2022-07-30T13:03:51.241Z,28.37
2022-07-30T13:05:10.083Z,28.45
2022-07-30T13:06:17.224Z,28.72
2022-07-30T13:07:19.008Z,28.67
2022-07-30T13:08:21.365Z,28.24
2022-07-30T13:09:23.199Z,28.61
2022-07-30T13:10:30.404Z,28.52
2022-07-30T13:11:41.786Z,28.69
2022-07-30T13:12:50.545Z,28.82
2022-07-30T13:13:53.132Z,28.62
2022-07-30T13:14:55.158Z,28.43
2022-07-30T13:16:05.563Z,28.55
2022-07-30T13:17:09.856Z,28.52
2022-07-30T13:18:11.826Z,28.34
2022-07-30T13:19:15.642Z,28.56
2022-07-30T13:20:18.352Z,28.68
2022-07-30T13:21:20.172Z,28.81
2022-07-30T13:22:22.353Z,28.29
2022-07-30T13:23:24.961Z,28.73
2022-07-30T13:24:26.852Z,28.38
2022-07-30T13:25:40.491Z,28.54
2022-07-30T13:26:42.583Z,28.58
2022-07-30T13:27:44.770Z,28.58
2022-07-30T13:28:46.694Z,28.35
2022-07-30T13:29:48.602Z,28.76
2022-07-30T13:30:50.592Z,28.57
2022-07-30T13:31:52.869Z,28.71
2022-07-30T13:32:54.628Z,28.42
2022-07-30T13:33:56.524Z,28.78
2022-07-30T13:35:01.589Z,28.54
2022-07-30T13:36:04.436Z,28.36
2022-07-30T13:37:06.403Z,28.31
2022-07-30T13:38:08.228Z,28.82
2022-07-30T13:39:12.085Z,28.65
2022-07-30T13:40:14.188Z,28.51
2022-07-30T13:41:18.703Z,28.48
2022-07-30T13:42:21.445Z,28.52
2022-07-30T13:43:23.808Z,28.51
2022-07-30T13:44:25.607Z,28.87
2022-07-30T13:45:28.099Z,29.16
2022-07-30T13:46:30.001Z,28.83
2022-07-30T13:47:31.809Z,28.86
2022-07-30T13:48:34.029Z,28.80
2022-07-30T13:49:38.892Z,28.44
2022-07-30T13:50:41.546Z,28.74
2022-07-30T13:51:43.616Z,28.59
2022-07-30T13:52:46.082Z,28.43
2022-07-30T13:53:48.012Z,28.91
2022-07-30T13:54:52.433Z,28.49
2022-07-30T13:55:54.704Z,28.86
2022-07-30T13:56:56.594Z,28.78
2022-07-30T13:57:58.979Z,28.65
2022-07-30T13:59:00.963Z,28.38
2022-07-30T14:00:07.374Z,28.66
2022-07-30T14:01:17.377Z,28.32
2022-07-30T14:02:19.724Z,28.54
2022-07-30T14:03:21.473Z,28.56
2022-07-30T14:04:23.251Z,28.38
2022-07-30T14:05:25.119Z,28.47
2022-07-30T14:06:27.071Z,28.51
2022-07-30T14:07:29.012Z,28.69
2022-07-30T14:08:31.568Z,28.52
2022-07-30T14:09:33.423Z,28.54
2022-07-30T14:10:46.513Z,28.51
2022-07-30T14:11:48.297Z,28.40
2022-07-30T14:12:55.005Z,28.73
2022-07-30T14:13:57.027Z,28.68
2022-07-30T14:14:58.881Z,28.35
2022-07-30T14:16:00.703Z,28.62
2022-07-30T14:17:02.653Z,28.43
2022-07-30T14:18:04.960Z,28.44
2022-07-30T14:19:06.925Z,28.48
2022-07-30T14:20:09.016Z,28.40
2022-07-30T14:21:10.807Z,28.41
2022-07-30T14:22:12.570Z,28.45
2022-07-30T14:23:14.404Z,28.59
2022-07-30T14:24:19.156Z,28.53
2022-07-30T14:25:21.253Z,28.56
2022-07-30T14:26:23.046Z,28.72
2022-07-30T14:27:24.808Z,28.80
2022-07-30T14:28:26.602Z,28.44
2022-07-30T14:29:28.804Z,28.82
2022-07-30T14:30:30.614Z,28.29
2022-07-30T14:31:32.579Z,28.42
2022-07-30T14:32:34.403Z,28.57